sensor_id;sensor_type;location;lat;lon;timestamp;temperature;humidity
16995;DHT22;8614;48.522;9.206;2023-06-10T00:01:16;16.30;99.90
16995;DHT22;8614;48.522;9.206;2023-06-10T00:03:43;16.30;99.90
16995;DHT22;8614;48.522;9.206;2023-06-10T00:06:10;16.30;99.90
16995;DHT22;8614;48.522;9.206;2023-06-10T00:08:37;16.20;99.90
16995;DHT22;8614;48.522;9.206;2023-06-10T00:11:05;16.10;99.90
16995;DHT22;8614;48.522;9.206;2023-06-10T00:13:32;16.00;99.90
16995;DHT22;8614;48.522;9.206;2023-06-10T00:15:58;15.90;99.90
16995;DHT22;8614;48.522;9.206;2023-06-10T00:18:27;15.90;99.90
16995;DHT22;8614;48.522;9.206;2023-06-10T00:20:56;15.80;99.90
16995;DHT22;8614;48.522;9.206;2023-06-10T00:23:28;15.80;99.90
16995;DHT22;8614;48.522;9.206;2023-06-10T00:25:56;15.80;99.90
16995;DHT22;8614;48.522;9.206;2023-06-10T00:28:23;15.80;99.90
16995;DHT22;8614;48.522;9.206;2023-06-10T00:30:50;15.80;99.90
16995;DHT22;8614;48.522;9.206;2023-06-10T00:33:16;15.80;99.90
16995;DHT22;8614;48.522;9.206;2023-06-10T00:35:45;15.80;99.90
16995;DHT22;8614;48.522;9.206;2023-06-10T00:38:13;15.80;99.90
16995;DHT22;8614;48.522;9.206;2023-06-10T00:40:40;15.80;99.90
16995;DHT22;8614;48.522;9.206;2023-06-10T00:43:07;15.80;99.90
16995;DHT22;8614;48.522;9.206;2023-06-10T00:45:34;15.80;99.90
16995;DHT22;8614;48.522;9.206;2023-06-10T00:48:01;15.80;99.90
16995;DHT22;8614;48.522;9.206;2023-06-10T00:50:30;15.70;99.90
16995;DHT22;8614;48.522;9.206;2023-06-10T00:52:58;15.70;99.90
16995;DHT22;8614;48.522;9.206;2023-06-10T00:55:26;15.70;99.90
16995;DHT22;8614;48.522;9.206;2023-06-10T00:57:53;15.70;99.90
16995;DHT22;8614;48.522;9.206;2023-06-10T01:00:20;15.60;99.90
16995;DHT22;8614;48.522;9.206;2023-06-10T01:02:47;15.60;99.90
16995;DHT22;8614;48.522;9.206;2023-06-10T01:05:14;15.60;99.90
16995;DHT22;8614;48.522;9.206;2023-06-10T01:07:47;15.60;99.90
16995;DHT22;8614;48.522;9.206;2023-06-10T01:10:27;15.60;99.90
16995;DHT22;8614;48.522;9.206;2023-06-10T01:12:59;15.60;99.90
16995;DHT22;8614;48.522;9.206;2023-06-10T01:15:29;15.50;99.90
16995;DHT22;8614;48.522;9.206;2023-06-10T01:17:58;15.50;99.90
16995;DHT22;8614;48.522;9.206;2023-06-10T01:20:25;15.50;99.90
16995;DHT22;8614;48.522;9.206;2023-06-10T01:22:55;15.40;99.90
16995;DHT22;8614;48.522;9.206;2023-06-10T01:25:23;15.30;99.90
16995;DHT22;8614;48.522;9.206;2023-06-10T01:27:55;15.30;99.90
16995;DHT22;8614;48.522;9.206;2023-06-10T01:30:28;15.30;99.90
16995;DHT22;8614;48.522;9.206;2023-06-10T01:32:58;15.30;99.90
16995;DHT22;8614;48.522;9.206;2023-06-10T01:35:26;15.30;99.90
16995;DHT22;8614;48.522;9.206;2023-06-10T01:37:58;15.30;99.90
16995;DHT22;8614;48.522;9.206;2023-06-10T01:40:26;15.20;99.90
16995;DHT22;8614;48.522;9.206;2023-06-10T01:42:55;15.20;99.90
16995;DHT22;8614;48.522;9.206;2023-06-10T01:45:22;15.10;99.90
16995;DHT22;8614;48.522;9.206;2023-06-10T01:47:49;15.00;99.90
16995;DHT22;8614;48.522;9.206;2023-06-10T01:50:16;15.00;99.90
16995;DHT22;8614;48.522;9.206;2023-06-10T01:52:42;14.90;99.90
16995;DHT22;8614;48.522;9.206;2023-06-10T01:55:10;14.90;99.90
16995;DHT22;8614;48.522;9.206;2023-06-10T01:57:39;14.90;99.90
16995;DHT22;8614;48.522;9.206;2023-06-10T02:00:07;14.90;99.90
16995;DHT22;8614;48.522;9.206;2023-06-10T02:02:40;14.90;99.90
16995;DHT22;8614;48.522;9.206;2023-06-10T02:05:07;14.90;99.90
16995;DHT22;8614;48.522;9.206;2023-06-10T02:07:34;14.90;99.90
16995;DHT22;8614;48.522;9.206;2023-06-10T02:10:01;14.90;99.90
16995;DHT22;8614;48.522;9.206;2023-06-10T02:12:30;14.80;99.90
16995;DHT22;8614;48.522;9.206;2023-06-10T02:14:56;14.80;99.90
16995;DHT22;8614;48.522;9.206;2023-06-10T02:17:23;14.70;99.90
16995;DHT22;8614;48.522;9.206;2023-06-10T02:19:50;14.70;99.90
16995;DHT22;8614;48.522;9.206;2023-06-10T02:22:20;14.70;99.90
16995;DHT22;8614;48.522;9.206;2023-06-10T02:24:47;14.60;99.90
16995;DHT22;8614;48.522;9.206;2023-06-10T02:27:14;14.60;99.90
16995;DHT22;8614;48.522;9.206;2023-06-10T02:29:43;14.60;99.90
16995;DHT22;8614;48.522;9.206;2023-06-10T02:32:10;14.60;99.90
16995;DHT22;8614;48.522;9.206;2023-06-10T02:34:37;14.60;99.90
16995;DHT22;8614;48.522;9.206;2023-06-10T02:37:05;14.50;99.90
16995;DHT22;8614;48.522;9.206;2023-06-10T02:39:32;14.50;99.90
16995;DHT22;8614;48.522;9.206;2023-06-10T02:42:01;14.40;99.90
16995;DHT22;8614;48.522;9.206;2023-06-10T02:44:28;14.40;99.90
16995;DHT22;8614;48.522;9.206;2023-06-10T02:46:56;14.40;99.90
16995;DHT22;8614;48.522;9.206;2023-06-10T02:49:23;14.30;99.90
16995;DHT22;8614;48.522;9.206;2023-06-10T02:51:53;14.40;99.90
16995;DHT22;8614;48.522;9.206;2023-06-10T02:54:21;14.40;99.90
16995;DHT22;8614;48.522;9.206;2023-06-10T02:56:49;14.30;99.90
16995;DHT22;8614;48.522;9.206;2023-06-10T02:59:20;14.30;99.90
16995;DHT22;8614;48.522;9.206;2023-06-10T03:01:47;14.20;99.90
16995;DHT22;8614;48.522;9.206;2023-06-10T03:04:15;14.20;99.90
16995;DHT22;8614;48.522;9.206;2023-06-10T03:06:51;14.20;99.90
16995;DHT22;8614;48.522;9.206;2023-06-10T03:09:27;14.20;99.90
16995;DHT22;8614;48.522;9.206;2023-06-10T03:11:56;14.10;99.90
16995;DHT22;8614;48.522;9.206;2023-06-10T03:14:25;14.10;99.90
16995;DHT22;8614;48.522;9.206;2023-06-10T03:16:52;14.00;99.90
16995;DHT22;8614;48.522;9.206;2023-06-10T03:19:23;14.00;99.90
16995;DHT22;8614;48.522;9.206;2023-06-10T03:22:07;14.00;99.90
16995;DHT22;8614;48.522;9.206;2023-06-10T03:24:37;14.00;99.90
16995;DHT22;8614;48.522;9.206;2023-06-10T03:27:07;13.90;99.90
16995;DHT22;8614;48.522;9.206;2023-06-10T03:29:36;13.90;99.90
16995;DHT22;8614;48.522;9.206;2023-06-10T03:32:05;13.90;99.90
16995;DHT22;8614;48.522;9.206;2023-06-10T03:34:35;13.90;99.90
16995;DHT22;8614;48.522;9.206;2023-06-10T03:37:02;13.90;99.90
16995;DHT22;8614;48.522;9.206;2023-06-10T03:39:31;13.90;99.90
16995;DHT22;8614;48.522;9.206;2023-06-10T03:41:59;13.90;99.90
16995;DHT22;8614;48.522;9.206;2023-06-10T03:44:28;13.90;99.90
16995;DHT22;8614;48.522;9.206;2023-06-10T03:46:55;13.90;99.90
16995;DHT22;8614;48.522;9.206;2023-06-10T03:49:27;13.90;99.90
16995;DHT22;8614;48.522;9.206;2023-06-10T03:51:58;14.00;99.90
16995;DHT22;8614;48.522;9.206;2023-06-10T03:54:26;14.00;99.90
16995;DHT22;8614;48.522;9.206;2023-06-10T03:56:52;14.10;99.90
16995;DHT22;8614;48.522;9.206;2023-06-10T03:59:19;14.10;99.90
16995;DHT22;8614;48.522;9.206;2023-06-10T04:01:46;14.20;99.90
16995;DHT22;8614;48.522;9.206;2023-06-10T04:04:14;14.20;99.90
16995;DHT22;8614;48.522;9.206;2023-06-10T04:06:42;14.20;99.90
16995;DHT22;8614;48.522;9.206;2023-06-10T04:09:11;14.30;99.90
16995;DHT22;8614;48.522;9.206;2023-06-10T04:11:39;14.30;99.90
16995;DHT22;8614;48.522;9.206;2023-06-10T04:14:06;14.30;99.90
16995;DHT22;8614;48.522;9.206;2023-06-10T04:16:34;14.40;99.90
16995;DHT22;8614;48.522;9.206;2023-06-10T04:19:02;14.40;99.90
16995;DHT22;8614;48.522;9.206;2023-06-10T04:21:29;14.40;99.90
16995;DHT22;8614;48.522;9.206;2023-06-10T04:23:56;14.50;99.90
16995;DHT22;8614;48.522;9.206;2023-06-10T04:26:25;14.60;99.90
16995;DHT22;8614;48.522;9.206;2023-06-10T04:28:53;14.80;99.90
16995;DHT22;8614;48.522;9.206;2023-06-10T04:31:20;14.90;99.90
16995;DHT22;8614;48.522;9.206;2023-06-10T04:33:47;15.00;99.90
16995;DHT22;8614;48.522;9.206;2023-06-10T04:36:15;15.00;99.90
16995;DHT22;8614;48.522;9.206;2023-06-10T04:38:42;15.20;99.90
16995;DHT22;8614;48.522;9.206;2023-06-10T04:41:09;15.40;99.90
16995;DHT22;8614;48.522;9.206;2023-06-10T04:43:38;15.60;99.90
16995;DHT22;8614;48.522;9.206;2023-06-10T04:46:05;15.70;99.90
16995;DHT22;8614;48.522;9.206;2023-06-10T04:48:32;15.90;99.90
16995;DHT22;8614;48.522;9.206;2023-06-10T04:51:00;16.90;99.90
16995;DHT22;8614;48.522;9.206;2023-06-10T04:53:27;17.80;99.90
16995;DHT22;8614;48.522;9.206;2023-06-10T04:55:55;18.00;99.90
16995;DHT22;8614;48.522;9.206;2023-06-10T04:58:23;18.20;99.90
16995;DHT22;8614;48.522;9.206;2023-06-10T05:00:51;18.10;99.90
16995;DHT22;8614;48.522;9.206;2023-06-10T05:03:18;18.00;99.90
16995;DHT22;8614;48.522;9.206;2023-06-10T05:05:44;17.90;99.90
16995;DHT22;8614;48.522;9.206;2023-06-10T05:08:11;18.00;99.90
16995;DHT22;8614;48.522;9.206;2023-06-10T05:10:38;18.10;99.90
16995;DHT22;8614;48.522;9.206;2023-06-10T05:13:05;18.20;99.90
16995;DHT22;8614;48.522;9.206;2023-06-10T05:15:31;18.30;99.90
16995;DHT22;8614;48.522;9.206;2023-06-10T05:18:00;18.50;99.90
16995;DHT22;8614;48.522;9.206;2023-06-10T05:20:28;18.70;99.90
16995;DHT22;8614;48.522;9.206;2023-06-10T05:22:55;18.90;99.90
16995;DHT22;8614;48.522;9.206;2023-06-10T05:25:21;19.00;99.90
16995;DHT22;8614;48.522;9.206;2023-06-10T05:27:48;19.00;99.90
16995;DHT22;8614;48.522;9.206;2023-06-10T05:30:15;19.00;99.90
16995;DHT22;8614;48.522;9.206;2023-06-10T05:32:44;19.00;99.90
16995;DHT22;8614;48.522;9.206;2023-06-10T05:35:12;19.00;99.90
16995;DHT22;8614;48.522;9.206;2023-06-10T05:37:39;19.20;99.90
16995;DHT22;8614;48.522;9.206;2023-06-10T05:40:07;19.50;99.90
16995;DHT22;8614;48.522;9.206;2023-06-10T05:42:34;19.90;99.90
16995;DHT22;8614;48.522;9.206;2023-06-10T05:45:00;20.50;99.90
16995;DHT22;8614;48.522;9.206;2023-06-10T05:47:28;21.00;99.90
16995;DHT22;8614;48.522;9.206;2023-06-10T05:49:54;21.60;99.90
16995;DHT22;8614;48.522;9.206;2023-06-10T05:52:22;22.20;99.90
16995;DHT22;8614;48.522;9.206;2023-06-10T05:54:50;22.80;99.90
16995;DHT22;8614;48.522;9.206;2023-06-10T05:57:16;23.00;99.90
16995;DHT22;8614;48.522;9.206;2023-06-10T05:59:43;23.30;99.90
16995;DHT22;8614;48.522;9.206;2023-06-10T06:02:10;23.60;99.90
16995;DHT22;8614;48.522;9.206;2023-06-10T06:04:37;23.80;99.90
16995;DHT22;8614;48.522;9.206;2023-06-10T06:07:04;24.10;99.90
16995;DHT22;8614;48.522;9.206;2023-06-10T06:09:32;24.20;99.90
16995;DHT22;8614;48.522;9.206;2023-06-10T06:11:59;24.40;99.90
16995;DHT22;8614;48.522;9.206;2023-06-10T06:14:26;24.60;99.90
16995;DHT22;8614;48.522;9.206;2023-06-10T06:16:53;24.60;99.90
16995;DHT22;8614;48.522;9.206;2023-06-10T06:19:20;24.70;99.90
16995;DHT22;8614;48.522;9.206;2023-06-10T06:21:46;25.10;99.90
16995;DHT22;8614;48.522;9.206;2023-06-10T06:24:14;25.40;99.90
16995;DHT22;8614;48.522;9.206;2023-06-10T06:26:42;25.70;99.90
16995;DHT22;8614;48.522;9.206;2023-06-10T06:29:09;25.80;99.90
16995;DHT22;8614;48.522;9.206;2023-06-10T06:31:35;25.90;99.90
16995;DHT22;8614;48.522;9.206;2023-06-10T06:34:02;25.70;99.90
16995;DHT22;8614;48.522;9.206;2023-06-10T06:36:29;25.80;99.90
16995;DHT22;8614;48.522;9.206;2023-06-10T06:38:56;26.00;99.90
16995;DHT22;8614;48.522;9.206;2023-06-10T06:41:24;26.10;99.90
16995;DHT22;8614;48.522;9.206;2023-06-10T06:43:53;26.20;99.90
16995;DHT22;8614;48.522;9.206;2023-06-10T06:46:24;26.50;99.90
16995;DHT22;8614;48.522;9.206;2023-06-10T06:48:51;26.50;99.90
16995;DHT22;8614;48.522;9.206;2023-06-10T06:51:17;26.60;99.90
16995;DHT22;8614;48.522;9.206;2023-06-10T06:53:44;26.70;99.90
16995;DHT22;8614;48.522;9.206;2023-06-10T06:56:11;26.60;99.90
16995;DHT22;8614;48.522;9.206;2023-06-10T06:58:38;26.70;99.90
16995;DHT22;8614;48.522;9.206;2023-06-10T07:01:06;26.90;99.90
16995;DHT22;8614;48.522;9.206;2023-06-10T07:03:33;26.70;99.90
16995;DHT22;8614;48.522;9.206;2023-06-10T07:06:00;26.70;99.90
16995;DHT22;8614;48.522;9.206;2023-06-10T07:08:27;26.90;99.90
16995;DHT22;8614;48.522;9.206;2023-06-10T07:10:54;27.00;99.90
16995;DHT22;8614;48.522;9.206;2023-06-10T07:13:21;27.00;99.90
16995;DHT22;8614;48.522;9.206;2023-06-10T07:15:47;27.00;99.90
16995;DHT22;8614;48.522;9.206;2023-06-10T07:18:16;27.10;99.90
16995;DHT22;8614;48.522;9.206;2023-06-10T07:20:43;27.00;99.90
16995;DHT22;8614;48.522;9.206;2023-06-10T07:23:10;27.00;99.90
16995;DHT22;8614;48.522;9.206;2023-06-10T07:25:37;27.40;99.90
16995;DHT22;8614;48.522;9.206;2023-06-10T07:28:04;27.70;99.90
16995;DHT22;8614;48.522;9.206;2023-06-10T07:30:30;28.10;99.90
16995;DHT22;8614;48.522;9.206;2023-06-10T07:32:57;28.20;99.90
16995;DHT22;8614;48.522;9.206;2023-06-10T07:35:25;27.90;99.90
16995;DHT22;8614;48.522;9.206;2023-06-10T07:37:52;27.60;99.90
16995;DHT22;8614;48.522;9.206;2023-06-10T07:40:19;27.50;99.90
16995;DHT22;8614;48.522;9.206;2023-06-10T07:42:46;28.00;99.90
16995;DHT22;8614;48.522;9.206;2023-06-10T07:45:12;28.00;99.90
16995;DHT22;8614;48.522;9.206;2023-06-10T07:47:39;28.20;99.90
16995;DHT22;8614;48.522;9.206;2023-06-10T07:50:06;28.20;99.90
16995;DHT22;8614;48.522;9.206;2023-06-10T07:52:35;28.60;99.90
16995;DHT22;8614;48.522;9.206;2023-06-10T07:55:03;28.70;99.90
16995;DHT22;8614;48.522;9.206;2023-06-10T07:57:31;28.60;99.90
16995;DHT22;8614;48.522;9.206;2023-06-10T08:00:00;28.50;99.90
16995;DHT22;8614;48.522;9.206;2023-06-10T08:02:38;28.50;99.90
16995;DHT22;8614;48.522;9.206;2023-06-10T08:05:05;28.80;99.90
16995;DHT22;8614;48.522;9.206;2023-06-10T08:07:32;28.90;99.90
16995;DHT22;8614;48.522;9.206;2023-06-10T08:10:00;29.00;99.90
16995;DHT22;8614;48.522;9.206;2023-06-10T08:12:27;28.80;99.90
16995;DHT22;8614;48.522;9.206;2023-06-10T08:14:54;28.80;99.90
16995;DHT22;8614;48.522;9.206;2023-06-10T08:17:21;29.00;99.90
16995;DHT22;8614;48.522;9.206;2023-06-10T08:19:49;28.90;99.90
16995;DHT22;8614;48.522;9.206;2023-06-10T08:22:15;28.50;99.90
16995;DHT22;8614;48.522;9.206;2023-06-10T08:24:42;28.40;99.90
16995;DHT22;8614;48.522;9.206;2023-06-10T08:27:10;28.30;99.90
16995;DHT22;8614;48.522;9.206;2023-06-10T08:29:37;28.70;99.90
16995;DHT22;8614;48.522;9.206;2023-06-10T08:32:04;28.50;99.90
16995;DHT22;8614;48.522;9.206;2023-06-10T08:34:33;28.90;99.90
16995;DHT22;8614;48.522;9.206;2023-06-10T08:37:00;29.20;99.90
16995;DHT22;8614;48.522;9.206;2023-06-10T08:39:27;28.80;99.90
16995;DHT22;8614;48.522;9.206;2023-06-10T08:42:03;28.70;99.90
16995;DHT22;8614;48.522;9.206;2023-06-10T08:44:32;29.00;99.90
16995;DHT22;8614;48.522;9.206;2023-06-10T08:47:08;29.10;99.90
16995;DHT22;8614;48.522;9.206;2023-06-10T08:49:41;29.20;99.90
16995;DHT22;8614;48.522;9.206;2023-06-10T08:52:13;29.80;99.90
16995;DHT22;8614;48.522;9.206;2023-06-10T08:54:43;29.70;99.90
16995;DHT22;8614;48.522;9.206;2023-06-10T08:57:10;29.70;99.90
16995;DHT22;8614;48.522;9.206;2023-06-10T08:59:38;29.80;99.90
16995;DHT22;8614;48.522;9.206;2023-06-10T09:02:07;29.70;99.90
16995;DHT22;8614;48.522;9.206;2023-06-10T09:04:36;29.50;99.90
16995;DHT22;8614;48.522;9.206;2023-06-10T09:07:04;29.40;99.90
16995;DHT22;8614;48.522;9.206;2023-06-10T09:09:32;29.40;99.90
16995;DHT22;8614;48.522;9.206;2023-06-10T09:12:00;29.50;99.90
16995;DHT22;8614;48.522;9.206;2023-06-10T09:14:27;29.80;99.90
16995;DHT22;8614;48.522;9.206;2023-06-10T09:16:55;30.40;99.90
16995;DHT22;8614;48.522;9.206;2023-06-10T09:19:23;30.60;99.90
16995;DHT22;8614;48.522;9.206;2023-06-10T09:21:51;30.60;99.50
16995;DHT22;8614;48.522;9.206;2023-06-10T09:24:18;30.60;99.90
16995;DHT22;8614;48.522;9.206;2023-06-10T09:26:45;30.40;98.80
16995;DHT22;8614;48.522;9.206;2023-06-10T09:29:12;30.10;99.80
16995;DHT22;8614;48.522;9.206;2023-06-10T09:31:39;30.30;99.00
16995;DHT22;8614;48.522;9.206;2023-06-10T09:34:09;30.20;98.70
16995;DHT22;8614;48.522;9.206;2023-06-10T09:36:37;30.40;98.70
16995;DHT22;8614;48.522;9.206;2023-06-10T09:39:05;30.40;99.80
16995;DHT22;8614;48.522;9.206;2023-06-10T09:41:41;30.40;98.70
16995;DHT22;8614;48.522;9.206;2023-06-10T09:44:12;30.60;99.90
16995;DHT22;8614;48.522;9.206;2023-06-10T09:46:39;30.40;97.30
16995;DHT22;8614;48.522;9.206;2023-06-10T09:49:06;30.70;96.60
16995;DHT22;8614;48.522;9.206;2023-06-10T09:51:34;31.00;96.20
16995;DHT22;8614;48.522;9.206;2023-06-10T09:54:02;30.80;95.00
16995;DHT22;8614;48.522;9.206;2023-06-10T09:56:33;30.20;95.60
16995;DHT22;8614;48.522;9.206;2023-06-10T09:59:01;30.60;95.80
16995;DHT22;8614;48.522;9.206;2023-06-10T10:01:29;30.60;95.20
16995;DHT22;8614;48.522;9.206;2023-06-10T10:03:57;30.40;96.50
16995;DHT22;8614;48.522;9.206;2023-06-10T10:06:24;30.20;95.80
16995;DHT22;8614;48.522;9.206;2023-06-10T10:08:53;30.30;96.90
16995;DHT22;8614;48.522;9.206;2023-06-10T10:11:21;30.40;95.00
16995;DHT22;8614;48.522;9.206;2023-06-10T10:13:49;30.70;96.00
16995;DHT22;8614;48.522;9.206;2023-06-10T10:16:17;30.10;95.60
16995;DHT22;8614;48.522;9.206;2023-06-10T10:18:48;29.50;96.00
16995;DHT22;8614;48.522;9.206;2023-06-10T10:21:16;29.80;97.10
16995;DHT22;8614;48.522;9.206;2023-06-10T10:23:57;28.90;96.80
16995;DHT22;8614;48.522;9.206;2023-06-10T10:26:26;28.80;97.10
16995;DHT22;8614;48.522;9.206;2023-06-10T10:28:59;29.00;97.30
16995;DHT22;8614;48.522;9.206;2023-06-10T10:31:29;29.20;98.20
16995;DHT22;8614;48.522;9.206;2023-06-10T10:34:00;29.80;98.30
16995;DHT22;8614;48.522;9.206;2023-06-10T10:36:28;29.80;96.30
16995;DHT22;8614;48.522;9.206;2023-06-10T10:38:57;29.90;96.30
16995;DHT22;8614;48.522;9.206;2023-06-10T10:41:24;30.10;96.90
16995;DHT22;8614;48.522;9.206;2023-06-10T10:43:53;30.10;95.70
16995;DHT22;8614;48.522;9.206;2023-06-10T10:46:20;30.00;97.20
16995;DHT22;8614;48.522;9.206;2023-06-10T10:48:52;29.70;96.20
16995;DHT22;8614;48.522;9.206;2023-06-10T10:51:19;29.40;96.80
16995;DHT22;8614;48.522;9.206;2023-06-10T10:54:11;29.20;97.30
16995;DHT22;8614;48.522;9.206;2023-06-10T10:56:38;29.70;96.80
16995;DHT22;8614;48.522;9.206;2023-06-10T10:59:06;29.90;94.70
16995;DHT22;8614;48.522;9.206;2023-06-10T11:01:41;29.60;94.30
16995;DHT22;8614;48.522;9.206;2023-06-10T11:04:11;29.60;95.80
16995;DHT22;8614;48.522;9.206;2023-06-10T11:06:38;29.50;95.70
16995;DHT22;8614;48.522;9.206;2023-06-10T11:09:27;29.40;96.30
16995;DHT22;8614;48.522;9.206;2023-06-10T11:11:56;29.50;96.30
16995;DHT22;8614;48.522;9.206;2023-06-10T11:14:26;29.20;96.90
16995;DHT22;8614;48.522;9.206;2023-06-10T11:16:57;29.30;97.10
16995;DHT22;8614;48.522;9.206;2023-06-10T11:19:34;29.10;97.10
16995;DHT22;8614;48.522;9.206;2023-06-10T11:22:03;29.10;97.00
16995;DHT22;8614;48.522;9.206;2023-06-10T11:24:31;28.60;97.60
16995;DHT22;8614;48.522;9.206;2023-06-10T11:27:16;28.50;98.40
16995;DHT22;8614;48.522;9.206;2023-06-10T11:29:58;28.20;97.20
16995;DHT22;8614;48.522;9.206;2023-06-10T11:32:43;28.20;97.30
16995;DHT22;8614;48.522;9.206;2023-06-10T11:35:10;28.40;97.80
16995;DHT22;8614;48.522;9.206;2023-06-10T11:37:37;28.50;98.00
16995;DHT22;8614;48.522;9.206;2023-06-10T11:40:07;28.70;97.30
16995;DHT22;8614;48.522;9.206;2023-06-10T11:42:39;28.70;97.00
16995;DHT22;8614;48.522;9.206;2023-06-10T11:45:07;28.80;96.50
16995;DHT22;8614;48.522;9.206;2023-06-10T11:47:35;28.70;97.10
16995;DHT22;8614;48.522;9.206;2023-06-10T11:50:01;28.30;97.20
16995;DHT22;8614;48.522;9.206;2023-06-10T11:52:29;27.90;96.60
16995;DHT22;8614;48.522;9.206;2023-06-10T11:54:57;27.60;97.50
16995;DHT22;8614;48.522;9.206;2023-06-10T11:57:26;27.30;98.70
16995;DHT22;8614;48.522;9.206;2023-06-10T11:59:53;27.30;97.90
16995;DHT22;8614;48.522;9.206;2023-06-10T12:02:19;27.70;98.70
16995;DHT22;8614;48.522;9.206;2023-06-10T12:04:47;27.80;97.80
16995;DHT22;8614;48.522;9.206;2023-06-10T12:07:18;28.00;97.40
16995;DHT22;8614;48.522;9.206;2023-06-10T12:09:45;27.80;96.80
16995;DHT22;8614;48.522;9.206;2023-06-10T12:12:12;27.60;97.30
16995;DHT22;8614;48.522;9.206;2023-06-10T12:14:54;27.70;97.70
16995;DHT22;8614;48.522;9.206;2023-06-10T12:17:23;27.80;98.00
16995;DHT22;8614;48.522;9.206;2023-06-10T12:19:50;27.90;96.80
16995;DHT22;8614;48.522;9.206;2023-06-10T12:22:17;27.90;96.40
16995;DHT22;8614;48.522;9.206;2023-06-10T12:24:45;27.60;97.70
16995;DHT22;8614;48.522;9.206;2023-06-10T12:27:12;27.40;96.70
16995;DHT22;8614;48.522;9.206;2023-06-10T12:29:39;27.20;97.40
16995;DHT22;8614;48.522;9.206;2023-06-10T12:32:18;27.00;97.30
16995;DHT22;8614;48.522;9.206;2023-06-10T12:34:45;27.20;97.60
16995;DHT22;8614;48.522;9.206;2023-06-10T12:37:13;27.40;97.20
16995;DHT22;8614;48.522;9.206;2023-06-10T12:39:40;27.70;97.60
16995;DHT22;8614;48.522;9.206;2023-06-10T12:42:09;27.70;97.90
16995;DHT22;8614;48.522;9.206;2023-06-10T12:44:40;27.50;97.80
16995;DHT22;8614;48.522;9.206;2023-06-10T12:47:08;27.30;98.20
16995;DHT22;8614;48.522;9.206;2023-06-10T12:49:37;27.10;98.10
16995;DHT22;8614;48.522;9.206;2023-06-10T12:52:04;26.90;98.50
16995;DHT22;8614;48.522;9.206;2023-06-10T12:54:31;26.70;98.10
16995;DHT22;8614;48.522;9.206;2023-06-10T12:56:58;26.80;98.80
16995;DHT22;8614;48.522;9.206;2023-06-10T12:59:25;26.90;97.40
16995;DHT22;8614;48.522;9.206;2023-06-10T13:01:53;27.20;98.30
16995;DHT22;8614;48.522;9.206;2023-06-10T13:04:20;27.40;98.30
16995;DHT22;8614;48.522;9.206;2023-06-10T13:06:48;27.50;98.10
16995;DHT22;8614;48.522;9.206;2023-06-10T13:09:16;27.50;97.70
16995;DHT22;8614;48.522;9.206;2023-06-10T13:11:42;27.60;97.80
16995;DHT22;8614;48.522;9.206;2023-06-10T13:14:10;27.70;96.50
16995;DHT22;8614;48.522;9.206;2023-06-10T13:16:37;27.60;96.70
16995;DHT22;8614;48.522;9.206;2023-06-10T13:19:05;27.40;95.80
16995;DHT22;8614;48.522;9.206;2023-06-10T13:21:32;27.40;95.90
16995;DHT22;8614;48.522;9.206;2023-06-10T13:24:01;27.60;96.20
16995;DHT22;8614;48.522;9.206;2023-06-10T13:26:27;27.60;96.60
16995;DHT22;8614;48.522;9.206;2023-06-10T13:28:54;27.80;96.50
16995;DHT22;8614;48.522;9.206;2023-06-10T13:31:21;27.90;96.70
16995;DHT22;8614;48.522;9.206;2023-06-10T13:33:48;28.10;96.90
16995;DHT22;8614;48.522;9.206;2023-06-10T13:36:15;27.80;96.10
16995;DHT22;8614;48.522;9.206;2023-06-10T13:38:42;27.80;96.80
16995;DHT22;8614;48.522;9.206;2023-06-10T13:41:10;27.90;96.30
16995;DHT22;8614;48.522;9.206;2023-06-10T13:43:38;28.00;97.10
16995;DHT22;8614;48.522;9.206;2023-06-10T13:46:04;28.10;95.80
16995;DHT22;8614;48.522;9.206;2023-06-10T13:48:31;28.00;95.80
16995;DHT22;8614;48.522;9.206;2023-06-10T13:50:58;28.20;96.30
16995;DHT22;8614;48.522;9.206;2023-06-10T13:53:25;28.20;95.70
16995;DHT22;8614;48.522;9.206;2023-06-10T13:55:52;28.10;97.00
16995;DHT22;8614;48.522;9.206;2023-06-10T13:58:20;27.90;96.50
16995;DHT22;8614;48.522;9.206;2023-06-10T14:00:47;27.40;96.30
16995;DHT22;8614;48.522;9.206;2023-06-10T14:03:14;27.10;96.70
16995;DHT22;8614;48.522;9.206;2023-06-10T14:05:41;26.80;96.90
16995;DHT22;8614;48.522;9.206;2023-06-10T14:08:08;26.70;97.60
16995;DHT22;8614;48.522;9.206;2023-06-10T14:10:35;26.80;97.50
16995;DHT22;8614;48.522;9.206;2023-06-10T14:13:01;26.90;97.50
16995;DHT22;8614;48.522;9.206;2023-06-10T14:15:30;27.00;97.00
16995;DHT22;8614;48.522;9.206;2023-06-10T14:17:58;27.00;96.10
16995;DHT22;8614;48.522;9.206;2023-06-10T14:20:24;27.10;96.00
16995;DHT22;8614;48.522;9.206;2023-06-10T14:22:52;27.10;96.00
16995;DHT22;8614;48.522;9.206;2023-06-10T14:25:19;27.20;95.70
16995;DHT22;8614;48.522;9.206;2023-06-10T14:27:46;27.20;96.00
16995;DHT22;8614;48.522;9.206;2023-06-10T14:30:13;27.20;95.50
16995;DHT22;8614;48.522;9.206;2023-06-10T14:32:41;27.40;95.80
16995;DHT22;8614;48.522;9.206;2023-06-10T14:35:08;27.60;95.50
16995;DHT22;8614;48.522;9.206;2023-06-10T14:37:36;27.70;95.20
16995;DHT22;8614;48.522;9.206;2023-06-10T14:40:04;27.80;95.50
16995;DHT22;8614;48.522;9.206;2023-06-10T14:42:31;27.80;95.90
16995;DHT22;8614;48.522;9.206;2023-06-10T14:44:58;27.80;95.20
16995;DHT22;8614;48.522;9.206;2023-06-10T14:47:25;27.80;95.90
16995;DHT22;8614;48.522;9.206;2023-06-10T14:49:53;27.70;95.50
16995;DHT22;8614;48.522;9.206;2023-06-10T14:52:20;27.60;96.00
16995;DHT22;8614;48.522;9.206;2023-06-10T14:54:46;27.40;96.00
16995;DHT22;8614;48.522;9.206;2023-06-10T14:57:13;27.40;95.70
16995;DHT22;8614;48.522;9.206;2023-06-10T14:59:40;27.30;95.50
16995;DHT22;8614;48.522;9.206;2023-06-10T15:02:07;27.30;97.00
16995;DHT22;8614;48.522;9.206;2023-06-10T15:04:34;27.30;97.40
16995;DHT22;8614;48.522;9.206;2023-06-10T15:07:02;27.30;97.30
16995;DHT22;8614;48.522;9.206;2023-06-10T15:09:29;27.40;97.10
16995;DHT22;8614;48.522;9.206;2023-06-10T15:11:57;27.50;97.60
16995;DHT22;8614;48.522;9.206;2023-06-10T15:14:25;27.60;97.50
16995;DHT22;8614;48.522;9.206;2023-06-10T15:16:52;27.50;96.90
16995;DHT22;8614;48.522;9.206;2023-06-10T15:19:19;27.40;97.70
16995;DHT22;8614;48.522;9.206;2023-06-10T15:21:45;27.10;97.50
16995;DHT22;8614;48.522;9.206;2023-06-10T15:24:13;26.90;98.50
16995;DHT22;8614;48.522;9.206;2023-06-10T15:26:40;26.50;98.50
16995;DHT22;8614;48.522;9.206;2023-06-10T15:29:07;26.40;99.00
16995;DHT22;8614;48.522;9.206;2023-06-10T15:31:34;26.40;99.40
16995;DHT22;8614;48.522;9.206;2023-06-10T15:34:01;26.40;99.70
16995;DHT22;8614;48.522;9.206;2023-06-10T15:36:30;26.30;99.80
16995;DHT22;8614;48.522;9.206;2023-06-10T15:39:01;26.30;99.90
16995;DHT22;8614;48.522;9.206;2023-06-10T15:41:30;26.40;99.90
16995;DHT22;8614;48.522;9.206;2023-06-10T15:43:56;26.40;99.90
16995;DHT22;8614;48.522;9.206;2023-06-10T15:46:25;26.40;99.90
16995;DHT22;8614;48.522;9.206;2023-06-10T15:48:52;26.50;99.90
16995;DHT22;8614;48.522;9.206;2023-06-10T15:51:19;26.50;99.50